Time;durP1;ratioP1;P1;durP2;ratioP2;P2;SDS_P1;SDS_P2;PMS_P1;PMS_P2;Temp;Humidity;BMP_temperature;BMP_pressure;BME280_temperature;BME280_humidity;BME280_pressure;Samples;Min_cycle;Max_cycle;Signal;HPM_P1;HPM_P2
2021/11/02 00:00:04;;;;;;;;;;;;;;;;;;2093033;28;806;-90
2021/11/02 00:01:17;;;;;;;;;;;;;;;;;;2088346;28;716;-90
2021/11/02 00:02:18;;;;;;;;;;;;;;;;;;2094548;28;1360;-88
2021/11/02 00:03:23;;;;;;;;;;;;;;;;;;2092474;28;1973;-88
2021/11/02 00:04:24;;;;;;;;;;;;;;;;;;2092305;28;1332;-88
2021/11/02 00:05:27;;;;;;;;;;;;;;;;;;2092489;28;1367;-90
2021/11/02 00:06:28;;;;;;;;;;;;;;;;;;2098846;28;1353;-89
2021/11/02 00:07:31;;;;;;;;;;;;;;;;;;2092242;28;1216;-89
2021/11/02 00:08:32;;;;;;;;;;;;;;;;;;2091797;28;1258;-88
2021/11/02 00:09:41;;;;;;;;;;;;;;;;;;2092289;28;1484;-88
2021/11/02 00:10:46;;;;;;;;;;;;;;;;;;2085884;28;1357;-89
2021/11/02 00:11:48;;;;;;;;;;;;;;;;;;2084909;28;1305;-89
2021/11/02 00:12:51;;;;;;;;;;;;;;;;;;2089646;28;2024;-89
2021/11/02 00:14:00;;;;;;;;;;;;;;;;;;2092686;28;1200;-89
2021/11/02 00:15:03;;;;;;;;;;;;;;;;;;2100749;28;1199;-92
2021/11/02 00:16:07;;;;;;;;;;;;;;;;;;2100549;28;1590;-91
2021/11/02 00:17:14;;;;;;;;;;;;;;;;;;2091849;28;1395;-90
2021/11/02 00:18:15;;;;;;;;;;;;;;;;;;2083890;28;1997;-89
2021/11/02 00:19:17;;;;;;;;;;;;;;;;;;2083878;28;1191;-90
2021/11/02 00:20:19;;;;;;;;;;;;;;;;;;2092311;28;1225;-90
2021/11/02 00:21:22;;;;;;;;;;;;;;;;;;2075916;28;1257;-90
2021/11/02 00:22:25;;;;;;;;;;;;;;;;;;2076438;28;1192;-90
2021/11/02 00:23:34;;;;;;;;;;;;;;;;;;2084291;28;1969;-90
2021/11/02 00:24:39;;;;;;;;;;;;;;;;;;2085044;28;1239;-90
2021/11/02 00:25:45;;;;;;;;;;;;;;;;;;2093871;28;826;-91
2021/11/02 00:26:48;;;;;;;;;;;;;;;;;;2084273;28;1365;-91
2021/11/02 00:27:52;;;;;;;;;;;;;;;;;;2075938;28;1336;-91
2021/11/02 00:28:53;;;;;;;;;;;;;;;;;;2092786;28;1079;-91
2021/11/02 00:29:57;;;;;;;;;;;;;;;;;;2084016;28;1328;-90
2021/11/02 00:31:01;;;;;;;;;;;;;;;;;;2078863;28;1343;-91
2021/11/02 00:32:02;;;;;;;;;;;;;;;;;;2092466;28;1206;-91
2021/11/02 00:33:04;;;;;;;;;;;;;;;;;;2087877;28;1356;-91
2021/11/02 00:34:06;;;;;;;;;;;;;;;;;;2083604;28;1216;-93
2021/11/02 00:35:14;;;;;;;;;;;;;;;;;;2092402;28;1432;-92
2021/11/02 00:36:15;;;;;;;;;;;;;;;;;;2093016;28;1310;-93
2021/11/02 00:37:26;;;;;;;;;;;;;;;;;;2091844;28;1365;-93
2021/11/02 00:38:30;;;;;;;;;;;;;;;;;;2093401;28;1407;-92
2021/11/02 00:39:36;;;;;;;;;;;;;;;;;;2100263;28;1171;-92
2021/11/02 00:40:43;;;;;;;;;;;;;;;;;;2092921;28;1282;-92
2021/11/02 00:41:48;;;;;;;;;;;;;;;;;;2084909;28;1257;-93
2021/11/02 00:42:55;;;;;;;;;;;;;;;;;;2084806;28;1369;-92
2021/11/02 00:43:57;;;;;;;;;;;;;;;;;;2092610;28;1967;-93
2021/11/02 00:45:02;;;;;;;;;;;;;;;;;;2092031;28;1259;-93
2021/11/02 00:46:03;;;;;;;;;;;;;;;;;;2091840;28;1227;-92
2021/11/02 00:47:09;;;;;;;;;;;;;;;;;;2092518;28;1294;-92
2021/11/02 00:48:13;;;;;;;;;;;;;;;;;;2092029;28;1225;-93
2021/11/02 00:49:21;;;;;;;;;;;;;;;;;;2092183;28;1268;-92
2021/11/02 00:50:24;;;;;;;;;;;;;;;;;;2084986;28;1340;-92
2021/11/02 00:51:25;;;;;;;;;;;;;;;;;;2091745;28;1476;-91
2021/11/02 00:52:28;;;;;;;;;;;;;;;;;;2092411;28;1331;-92
2021/11/02 00:53:32;;;;;;;;;;;;;;;;;;2083872;28;1261;-92
2021/11/02 00:54:36;;;;;;;;;;;;;;;;;;2092908;28;1236;-92
2021/11/02 00:55:44;;;;;;;;;;;;;;;;;;2092177;28;1426;-92
2021/11/02 00:56:45;;;;;;;;;;;;;;;;;;2083747;28;1563;-92
2021/11/02 00:57:53;;;;;;;;;;;;;;;;;;2094127;28;1535;-92
2021/11/02 00:58:54;;;;;;;;;;;;;;;;;;2100259;28;1273;-92
2021/11/02 00:59:59;;;;;;;;;;;;;;;;;;2100560;28;890;-92
2021/11/02 01:01:00;;;;;;;;;;;;;;;;;;2094846;28;1215;-92
2021/11/02 01:02:09;;;;;;;;;;;;;;;;;;2091728;28;1539;-91
2021/11/02 01:03:10;;;;;;;;;;;;;;;;;;2100442;28;1327;-91
2021/11/02 01:04:16;;;;;;;;;;;;;;;;;;2083678;28;1914;-91
2021/11/02 01:05:17;;;;;;;;;;;;;;;;;;2084887;28;1518;-91
2021/11/02 01:06:20;;;;;;;;;;;;;;;;;;2086484;28;2072;-92
2021/11/02 01:07:35;;;;;;;;;;;;;;;;;;2092652;28;1279;-91
2021/11/02 01:08:37;;;;;;;;;;;;;;;;;;2091928;28;1219;-92
2021/11/02 01:09:41;;;;;;;;;;;;;;;;;;2084180;28;1363;-92
2021/11/02 01:10:47;;;;;;;;;;;;;;;;;;2092777;28;906;-92
2021/11/02 01:11:51;;;;;;;;;;;;;;;;;;2083771;28;1339;-93
2021/11/02 01:12:59;;;;;;;;;;;;;;;;;;2085112;28;906;-92
2021/11/02 01:14:05;;;;;;;;;;;;;;;;;;2101227;28;917;-92
2021/11/02 01:15:07;;;;;;;;;;;;;;;;;;2091915;28;1170;-91
2021/11/02 01:16:11;;;;;;;;;;;;;;;;;;2084120;28;1334;-93
2021/11/02 01:17:13;;;;;;;;;;;;;;;;;;2084089;28;1250;-92
2021/11/02 01:18:18;;;;;;;;;;;;;;;;;;2084025;28;1313;-93
2021/11/02 01:19:21;;;;;;;;;;;;;;;;;;2084620;28;839;-92
2021/11/02 01:20:26;;;;;;;;;;;;;;;;;;2084191;28;1298;-92
2021/11/02 01:21:29;;;;;;;;;;;;;;;;;;2091913;28;1447;-92
2021/11/02 01:22:33;;;;;;;;;;;;;;;;;;2083760;28;1352;-92
2021/11/02 01:23:36;;;;;;;;;;;;;;;;;;2083590;28;1988;-92
2021/11/02 01:24:40;;;;;;;;;;;;;;;;;;2092563;28;1283;-92
2021/11/02 01:25:41;;;;;;;;;;;;;;;;;;2091652;28;1243;-92
2021/11/02 01:26:53;;;;;;;;;;;;;;;;;;2083909;28;1248;-92
2021/11/02 01:27:57;;;;;;;;;;;;;;;;;;2085086;28;1494;-92
2021/11/02 01:29:13;;;;;;;;;;;;;;;;;;2084636;28;1738;-92
2021/11/02 01:30:15;;;;;;;;;;;;;;;;;;2093406;28;1200;-92
2021/11/02 01:31:17;;;;;;;;;;;;;;;;;;2096324;28;1144;-92
2021/11/02 01:32:18;;;;;;;;;;;;;;;;;;2092374;28;1191;-92
2021/11/02 01:34:40;;;;;;;;;;;;;;;;;;2092571;28;1389;-92
2021/11/02 01:35:43;;;;;;;;;;;;;;;;;;2100179;28;1422;-91
2021/11/02 01:36:47;;;;;;;;;;;;;;;;;;2091709;28;1314;-91
2021/11/02 01:37:49;;;;;;;;;;;;;;;;;;2092137;28;1262;-90
2021/11/02 01:38:51;;;;;;;;;;;;;;;;;;2091569;28;1306;-91
2021/11/02 01:39:53;;;;;;;;;;;;;;;;;;2100575;28;958;-91
2021/11/02 01:40:55;;;;;;;;;;;;;;;;;;2100106;28;1321;-91
2021/11/02 01:41:58;;;;;;;;;;;;;;;;;;2100247;28;963;-90
2021/11/02 01:43:03;;;;;;;;;;;;;;;;;;2099183;28;1235;-91
2021/11/02 01:44:05;;;;;;;;;;;;;;;;;;2092410;28;1973;-90
2021/11/02 01:45:09;;;;;;;;;;;;;;;;;;2091336;28;1346;-90
2021/11/02 01:46:19;;;;;;;;;;;;;;;;;;2099944;28;1403;-90
2021/11/02 01:47:23;;;;;;;;;;;;;;;;;;2101668;28;1404;-90
2021/11/02 01:48:24;;;;;;;;;;;;;;;;;;2099430;28;1286;-90
2021/11/02 01:49:31;;;;;;;;;;;;;;;;;;2100364;28;1141;-90
2021/11/02 01:50:33;;;;;;;;;;;;;;;;;;2100262;28;1202;-90
2021/11/02 01:51:40;;;;;;;;;;;;;;;;;;2099652;28;2078;-90
2021/11/02 01:52:41;;;;;;;;;;;;;;;;;;2100678;28;1092;-90
2021/11/02 01:53:48;;;;;;;;;;;;;;;;;;2099618;28;1246;-90
2021/11/02 01:54:49;;;;;;;;;;;;;;;;;;2100121;28;1425;-90
2021/11/02 01:55:51;;;;;;;;;;;;;;;;;;2099515;28;1226;-90
2021/11/02 01:56:53;;;;;;;;;;;;;;;;;;2083698;28;1386;-90
2021/11/02 01:58:00;;;;;;;;;;;;;;;;;;2083976;28;1518;-90
2021/11/02 01:59:09;;;;;;;;;;;;;;;;;;2076233;28;1298;-91
2021/11/02 02:00:24;;;;;;;;;;;;;;;;;;2088597;28;901;-91
2021/11/02 02:01:39;;;;;;;;;;;;;;;;;;2091795;28;1400;-91
2021/11/02 02:02:46;;;;;;;;;;;;;;;;;;2092252;28;1454;-91
2021/11/02 02:03:58;;;;;;;;;;;;;;;;;;2091813;28;1909;-90
2021/11/02 02:05:07;;;;;;;;;;;;;;;;;;2083559;28;1359;-91
2021/11/02 02:06:24;;;;;;;;;;;;;;;;;;2086094;28;900;-91
2021/11/02 02:07:32;;;;;;;;;;;;;;;;;;2094078;28;1101;-91
2021/11/02 02:08:38;;;;;;;;;;;;;;;;;;2091879;28;1399;-91
2021/11/02 02:09:44;;;;;;;;;;;;;;;;;;2083999;28;1481;-90
2021/11/02 02:10:55;;;;;;;;;;;;;;;;;;2092347;28;1320;-92
2021/11/02 02:12:00;;;;;;;;;;;;;;;;;;2091870;28;1170;-91
2021/11/02 02:13:09;;;;;;;;;;;;;;;;;;2091751;28;1345;-91
2021/11/02 02:14:21;;;;;;;;;;;;;;;;;;2091355;28;1349;-90
2021/11/02 02:15:29;;;;;;;;;;;;;;;;;;2093819;28;933;-91
2021/11/02 02:17:58;;;;;;;;;;;;;;;;;;2103042;28;2006;-90
2021/11/02 02:19:03;;;;;;;;;;;;;;;;;;2099515;28;1141;-93
2021/11/02 02:20:13;;;;;;;;;;;;;;;;;;2100640;28;952;-92
2021/11/02 02:21:55;;;;;;;;;;;;;;;;;;2099967;28;1343;-92
2021/11/02 02:23:07;;;;;;;;;;;;;;;;;;2090520;28;2064;-93
2021/11/02 02:24:29;;;;;;;;;;;;;;;;;;2093886;28;1914;-93
2021/11/02 02:25:50;;;;;;;;;;;;;;;;;;2097917;28;995;-93
2021/11/02 02:27:18;;;;;;;;;;;;;;;;;;2099839;28;1207;-93
2021/11/02 02:28:49;;;;;;;;;;;;;;;;;;2096381;28;1404;-93
2021/11/02 02:29:59;;;;;;;;;;;;;;;;;;2099718;28;1314;-92
2021/11/02 02:31:05;;;;;;;;;;;;;;;;;;2099662;28;1158;-92
2021/11/02 02:32:10;;;;;;;;;;;;;;;;;;2091729;28;1412;-93
2021/11/02 02:33:14;;;;;;;;;;;;;;;;;;2083246;28;1500;-93
2021/11/02 02:34:22;;;;;;;;;;;;;;;;;;2094114;28;851;-93
2021/11/02 02:35:34;;;;;;;;;;;;;;;;;;2108237;28;827;-93
2021/11/02 02:36:36;;;;;;;;;;;;;;;;;;2099567;28;1246;-93
2021/11/02 02:37:50;;;;;;;;;;;;;;;;;;2098936;28;1239;-92
2021/11/02 02:38:53;;;;;;;;;;;;;;;;;;2099635;28;1277;-93
2021/11/02 02:40:01;;;;;;;;;;;;;;;;;;2098256;28;1598;-92
2021/11/02 02:41:03;;;;;;;;;;;;;;;;;;2084129;28;1154;-92
2021/11/02 02:42:10;;;;;;;;;;;;;;;;;;2083111;28;1356;-93
2021/11/02 02:43:19;;;;;;;;;;;;;;;;;;2084851;28;1439;-92
2021/11/02 02:44:34;;;;;;;;;;;;;;;;;;2093125;28;1910;-93
2021/11/02 02:45:49;;;;;;;;;;;;;;;;;;2108471;28;981;-93
2021/11/02 02:46:51;;;;;;;;;;;;;;;;;;2099496;28;1248;-93
2021/11/02 02:51:37;;;;;;;;;;;;;;;;;;2105942;28;1358;-93
2021/11/02 02:53:28;;;;;;;;;;;;;;;;;;2108011;28;1156;-94
2021/11/02 02:56:13;;;;;;;;;;;;;;;;;;2094449;28;1208;-92
2021/11/02 03:00:10;;;;;;;;;;;;;;;;;;2108169;28;856;-93
2021/11/02 03:05:53;;;;;;;;;;;;;;;;;;;;;
2021/11/02 03:12:52;;;;;;;;;;;;;;;;;;2088209;28;1385;-91
2021/11/02 03:13:56;;;;;;;;;;;;;;;;;;2100311;28;955;-92
2021/11/02 03:15:11;;;;;;;;;;;;;;;;;;2099698;28;1291;-93
2021/11/02 03:16:15;;;;;;;;;;;;;;;;;;2093462;28;852;-91
2021/11/02 03:17:23;;;;;;;;;;;;;;;;;;2093515;28;1221;-91
2021/11/02 03:19:11;;;;;;;;;;;;;;;;;;2101343;28;1353;-91
2021/11/02 03:43:58;;;;;;;;;;;;;;;;;;2101342;28;893;-90
2021/11/02 03:45:11;;;;;;;;;;;;;;;;;;2092297;28;1914;-90
2021/11/02 03:49:11;;;;;;;;;;;;;;;;;;2071864;28;1262;-90
2021/11/02 03:58:17;;;;;;;;;;;;;;;;;;2076022;28;1217;-89
2021/11/02 03:59:41;;;;;;;;;;;;;;;;;;2060782;28;1343;-88
2021/11/02 04:01:04;;;;;;;;;;;;;;;;;;2084407;28;1385;-89
2021/11/02 05:48:16;;;;;;;;;;;;;;;;;;2091215;28;1470;-93
2021/11/02 05:56:25;;;;;;;;;;;;;;;;;;2099903;28;1495;-93
2021/11/02 05:57:32;;;;;;;;;;;;;;;;;;2092216;28;1530;-94
2021/11/02 05:58:44;;;;;;;;;;;;;;;;;;2092312;28;1526;-93
2021/11/02 05:59:56;;;;;;;;;;;;;;;;;;2093484;28;1478;-94
2021/11/02 06:01:04;;;;;;;;;;;;;;;;;;2091905;28;1338;-92
2021/11/02 06:02:25;;;;;;;;;;;;;;;;;;2084519;28;1354;-93
2021/11/02 06:03:41;;;;;;;;;;;;;;;;;;2085308;28;1338;-93
2021/11/02 06:06:10;;;;;;;;;;;;;;;;;;2082427;28;1193;-91
2021/11/02 06:07:32;;;;;;;;;;;;;;;;;;2092554;28;1322;-91
2021/11/02 06:10:18;;;;;;;;;;;;;;;;;;2075535;28;1268;-92
2021/11/02 06:29:13;;;;;;;;;;;;;;;;;;2066958;28;604;-92
2021/11/02 06:30:16;;;;;;;;;;;;;;;;;;2058844;28;1236;-92
2021/11/02 06:31:20;;;;;;;;;;;;;;;;;;2058489;28;1430;-93
2021/11/02 06:32:26;;;;;;;;;;;;;;;;;;2058442;28;1407;-93
2021/11/02 06:33:38;;;;;;;;;;;;;;;;;;2066974;28;1369;-94
2021/11/02 06:34:53;;;;;;;;;;;;;;;;;;2058892;28;1260;-93
2021/11/02 06:36:06;;;;;;;;;;;;;;;;;;2061961;28;1245;-93
2021/11/02 06:39:57;;;;;;;;;;;;;;;;;;2092790;28;1181;-94
2021/11/02 06:44:47;;;;;;;;;;;;;;;;;;2100230;28;1223;-93
2021/11/02 06:48:46;;;;;;;;;;;;;;;;;;2094986;28;1356;-93
2021/11/02 06:52:50;;;;;;;;;;;;;;;;;;2088763;28;1415;-93
2021/11/02 06:59:53;;;;;;;;;;;;;;;;;;2082449;28;1229;-91
2021/11/02 07:18:02;;;;;;;;;;;;;;;;;;2068527;28;1386;-94
2021/11/02 07:19:08;;;;;;;;;;;;;;;;;;2092443;28;1361;-95
2021/11/02 07:20:25;;;;;;;;;;;;;;;;;;2091439;28;1336;-95
2021/11/02 07:21:31;;;;;;;;;;;;;;;;;;2093010;28;1359;-94
2021/11/02 07:22:47;;;;;;;;;;;;;;;;;;2098833;28;1482;-93
2021/11/02 07:23:54;;;;;;;;;;;;;;;;;;2084949;28;1403;-94
2021/11/02 07:25:08;;;;;;;;;;;;;;;;;;2092458;28;1918;-94
2021/11/02 07:26:37;;;;;;;;;;;;;;;;;;2099780;28;1361;-94
2021/11/02 08:46:07;;;;;;;;;;;;;;;;;;2094085;28;1895;-84
2021/11/02 08:47:10;;;;;;;;;;;;;;;;;;2100721;28;753;-83
2021/11/02 08:48:12;;;;;;;;;;;;;;;;;;2097686;28;1223;-87
2021/11/02 08:49:15;;;;;;;;;;;;;;;;;;2092201;28;1211;-84
2021/11/02 08:50:19;;;;;;;;;;;;;;;;;;2092536;28;1492;-85
2021/11/02 08:51:20;;;;;;;;;;;;;;;;;;2106220;28;1881;-86
2021/11/02 08:52:23;;;;;;;;;;;;;;;;;;2100319;28;1421;-86
2021/11/02 08:53:25;;;;;;;;;;;;;;;;;;2084015;28;1311;-86
2021/11/02 08:54:27;;;;;;;;;;;;;;;;;;2075754;28;1368;-85
2021/11/02 08:55:28;;;;;;;;;;;;;;;;;;2075894;28;1380;-83
2021/11/02 08:56:31;;;;;;;;;;;;;;;;;;2091143;28;1243;-84
2021/11/02 08:57:33;;;;;;;;;;;;;;;;;;2091545;28;1223;-86
2021/11/02 08:58:34;;;;;;;;;;;;;;;;;;2092268;28;844;-83
2021/11/02 08:59:36;;;;;;;;;;;;;;;;;;2091793;28;1285;-86
2021/11/02 09:00:38;;;;;;;;;;;;;;;;;;2083777;28;2001;-85
2021/11/02 09:01:40;;;;;;;;;;;;;;;;;;2083637;28;1227;-83
2021/11/02 09:02:44;;;;;;;;;;;;;;;;;;2082767;28;2106;-83
2021/11/02 09:03:46;;;;;;;;;;;;;;;;;;2075755;28;1299;-85
2021/11/02 09:04:54;;;;;;;;;;;;;;;;;;2075993;28;1226;-82
2021/11/02 09:05:58;;;;;;;;;;;;;;;;;;2083857;28;1910;-85
2021/11/02 09:07:03;;;;;;;;;;;;;;;;;;2083842;28;1385;-86
2021/11/02 09:08:07;;;;;;;;;;;;;;;;;;2083773;28;2128;-87
2021/11/02 09:09:08;;;;;;;;;;;;;;;;;;2083643;28;1339;-84
2021/11/02 09:10:13;;;;;;;;;;;;;;;;;;2083664;28;1304;-87
2021/11/02 09:11:15;;;;;;;;;;;;;;;;;;2083677;28;1277;-83
2021/11/02 09:12:17;;;;;;;;;;;;;;;;;;2083504;28;1234;-82
2021/11/02 09:13:21;;;;;;;;;;;;;;;;;;2082682;28;2087;-83
2021/11/02 09:14:28;;;;;;;;;;;;;;;;;;2083542;28;1699;-85
2021/11/02 09:15:30;;;;;;;;;;;;;;;;;;2080005;28;1330;-87
2021/11/02 09:16:33;;;;;;;;;;;;;;;;;;2091957;28;1214;-88
2021/11/02 09:17:38;;;;;;;;;;;;;;;;;;2083788;28;1333;-86
2021/11/02 09:18:41;;;;;;;;;;;;;;;;;;2084046;28;1216;-88
2021/11/02 09:19:43;;;;;;;;;;;;;;;;;;2084005;28;1298;-84
2021/11/02 09:20:47;;;;;;;;;;;;;;;;;;2083749;28;1408;-87
2021/11/02 09:21:48;;;;;;;;;;;;;;;;;;2091742;28;1239;-86
2021/11/02 09:22:50;;;;;;;;;;;;;;;;;;2082768;28;2054;-84
2021/11/02 09:23:52;;;;;;;;;;;;;;;;;;2075649;28;1319;-89
2021/11/02 09:24:54;;;;;;;;;;;;;;;;;;2084037;28;1430;-86
2021/11/02 09:25:57;;;;;;;;;;;;;;;;;;2091704;28;1906;-87
2021/11/02 09:26:58;;;;;;;;;;;;;;;;;;2091962;28;1377;-88
2021/11/02 09:28:00;;;;;;;;;;;;;;;;;;2075569;28;2156;-82
2021/11/02 09:29:02;;;;;;;;;;;;;;;;;;2083440;28;1477;-84
2021/11/02 09:30:04;;;;;;;;;;;;;;;;;;2083713;28;1549;-82
2021/11/02 09:31:06;;;;;;;;;;;;;;;;;;2091523;28;1366;-83
2021/11/02 09:32:08;;;;;;;;;;;;;;;;;;2091450;28;1455;-85
2021/11/02 09:33:11;;;;;;;;;;;;;;;;;;2091596;28;1234;-82
2021/11/02 09:34:12;;;;;;;;;;;;;;;;;;2092158;28;1248;-84
2021/11/02 09:35:14;;;;;;;;;;;;;;;;;;2091661;28;1355;-84
2021/11/02 09:36:23;;;;;;;;;;;;;;;;;;2091865;28;927;-84
2021/11/02 09:37:28;;;;;;;;;;;;;;;;;;2091274;28;1465;-88
2021/11/02 09:38:32;;;;;;;;;;;;;;;;;;2084612;28;811;-88
2021/11/02 09:39:38;;;;;;;;;;;;;;;;;;2083484;28;1195;-86
2021/11/02 09:41:00;;;;;;;;;;;;;;;;;;2083816;28;856;-85
2021/11/02 09:42:11;;;;;;;;;;;;;;;;;;2076203;28;1387;-84
2021/11/02 09:43:38;;;;;;;;;;;;;;;;;;2075109;28;1287;-85
2021/11/02 09:44:51;;;;;;;;;;;;;;;;;;2079556;28;796;-88
2021/11/02 09:46:26;;;;;;;;;;;;;;;;;;2084489;28;1977;-84
2021/11/02 09:47:40;;;;;;;;;;;;;;;;;;2092294;28;776;-86
2021/11/02 09:48:59;;;;;;;;;;;;;;;;;;2099822;28;1300;-89
2021/11/02 09:50:16;;;;;;;;;;;;;;;;;;2091870;28;1378;-90
2021/11/02 09:51:30;;;;;;;;;;;;;;;;;;2090911;28;1919;-85
2021/11/02 09:52:52;;;;;;;;;;;;;;;;;;2084821;28;1327;-84
2021/11/02 09:54:22;;;;;;;;;;;;;;;;;;2089525;28;1211;-85
2021/11/02 09:55:41;;;;;;;;;;;;;;;;;;2085289;28;1275;-84
2021/11/02 09:57:03;;;;;;;;;;;;;;;;;;2092069;28;1333;-91
2021/11/02 09:58:24;;;;;;;;;;;;;;;;;;2084019;28;1842;-85
2021/11/02 09:59:46;;;;;;;;;;;;;;;;;;2086971;28;1385;-88
2021/11/02 10:01:06;;;;;;;;;;;;;;;;;;2090590;28;1392;-92
2021/11/02 10:02:17;;;;;;;;;;;;;;;;;;2101174;28;1370;-87
2021/11/02 10:03:44;;;;;;;;;;;;;;;;;;2095447;28;1360;-85
2021/11/02 10:05:00;;;;;;;;;;;;;;;;;;2082427;28;1291;-91
2021/11/02 10:06:15;;;;;;;;;;;;;;;;;;2086604;28;1910;-83
2021/11/02 10:07:43;;;;;;;;;;;;;;;;;;2108530;28;760;-86
2021/11/02 10:08:47;;;;;;;;;;;;;;;;;;2091265;28;1301;-86
2021/11/02 10:09:56;;;;;;;;;;;;;;;;;;2083546;28;1254;-86
2021/11/02 10:11:04;;;;;;;;;;;;;;;;;;2084546;28;1224;-87
2021/11/02 10:12:13;;;;;;;;;;;;;;;;;;2084233;28;1311;-89
2021/11/02 10:13:24;;;;;;;;;;;;;;;;;;2084080;28;1246;-86
2021/11/02 10:14:45;;;;;;;;;;;;;;;;;;2091509;28;1145;-86
2021/11/02 10:16:04;;;;;;;;;;;;;;;;;;2091486;28;1230;-82
2021/11/02 10:17:32;;;;;;;;;;;;;;;;;;2084469;28;1445;-86
2021/11/02 10:18:45;;;;;;;;;;;;;;;;;;2086386;28;1450;-86
2021/11/02 10:20:02;;;;;;;;;;;;;;;;;;2091946;28;990;-84
2021/11/02 10:21:24;;;;;;;;;;;;;;;;;;2091277;28;1231;-81
2021/11/02 10:22:57;;;;;;;;;;;;;;;;;;2081349;28;1305;-82
2021/11/02 10:24:17;;;;;;;;;;;;;;;;;;2066673;28;1323;-88
2021/11/02 10:25:30;;;;;;;;;;;;;;;;;;2056948;28;1401;-85
2021/11/02 10:26:35;;;;;;;;;;;;;;;;;;2072678;28;1903;-87
2021/11/02 10:27:50;;;;;;;;;;;;;;;;;;2084072;28;793;-84
2021/11/02 10:29:07;;;;;;;;;;;;;;;;;;2085013;28;1325;-85
2021/11/02 10:30:33;;;;;;;;;;;;;;;;;;2085731;28;824;-84
2021/11/02 10:31:39;;;;;;;;;;;;;;;;;;2086420;28;1220;-84
2021/11/02 10:32:42;;;;;;;;;;;;;;;;;;2083467;28;1231;-85
2021/11/02 10:33:48;;;;;;;;;;;;;;;;;;2083044;28;1220;-83
2021/11/02 10:34:59;;;;;;;;;;;;;;;;;;2075786;28;1283;-82
2021/11/02 10:36:11;;;;;;;;;;;;;;;;;;2077396;28;1545;-85
2021/11/02 10:37:20;;;;;;;;;;;;;;;;;;2084920;28;1247;-86
2021/11/02 10:38:26;;;;;;;;;;;;;;;;;;2084761;28;1368;-87
2021/11/02 10:39:36;;;;;;;;;;;;;;;;;;2092000;28;1180;-87
2021/11/02 10:40:58;;;;;;;;;;;;;;;;;;2083192;28;1496;-84
2021/11/02 10:42:08;;;;;;;;;;;;;;;;;;2080362;28;1395;-83
2021/11/02 10:43:39;;;;;;;;;;;;;;;;;;2084084;28;1235;-84
2021/11/02 10:44:44;;;;;;;;;;;;;;;;;;2091569;28;1424;-82
2021/11/02 10:45:53;;;;;;;;;;;;;;;;;;2083003;28;1973;-82
2021/11/02 10:47:03;;;;;;;;;;;;;;;;;;2083622;28;1303;-91
2021/11/02 10:48:06;;;;;;;;;;;;;;;;;;2092678;28;1357;-84
2021/11/02 10:49:20;;;;;;;;;;;;;;;;;;2083641;28;1276;-91
2021/11/02 10:50:22;;;;;;;;;;;;;;;;;;2086928;28;1298;-83
2021/11/02 10:51:35;;;;;;;;;;;;;;;;;;2091285;28;1742;-82
2021/11/02 10:52:39;;;;;;;;;;;;;;;;;;2091670;28;821;-82
2021/11/02 10:53:46;;;;;;;;;;;;;;;;;;2091164;28;1329;-83
2021/11/02 10:54:53;;;;;;;;;;;;;;;;;;2083869;28;1283;-82
2021/11/02 10:56:00;;;;;;;;;;;;;;;;;;2091030;28;867;-83
2021/11/02 10:57:14;;;;;;;;;;;;;;;;;;2092077;28;867;-88
2021/11/02 10:58:37;;;;;;;;;;;;;;;;;;2091165;28;1337;-86
2021/11/02 10:59:41;;;;;;;;;;;;;;;;;;2082601;28;1336;-84
2021/11/02 11:00:44;;;;;;;;;;;;;;;;;;2083151;28;1199;-84
2021/11/02 11:01:46;;;;;;;;;;;;;;;;;;2082583;28;1330;-85
2021/11/02 11:02:47;;;;;;;;;;;;;;;;;;2083064;28;1263;-84
2021/11/02 11:03:52;;;;;;;;;;;;;;;;;;2083042;28;1231;-84
2021/11/02 11:04:54;;;;;;;;;;;;;;;;;;2074635;28;1340;-85
2021/11/02 11:05:57;;;;;;;;;;;;;;;;;;2067127;28;1971;-84
2021/11/02 11:06:58;;;;;;;;;;;;;;;;;;2074474;28;1327;-84
2021/11/02 11:08:03;;;;;;;;;;;;;;;;;;2075073;28;1231;-83
2021/11/02 11:09:06;;;;;;;;;;;;;;;;;;2074972;28;1342;-86
2021/11/02 11:10:09;;;;;;;;;;;;;;;;;;2083076;28;863;-85
2021/11/02 11:11:14;;;;;;;;;;;;;;;;;;2082726;28;1283;-84
2021/11/02 11:12:16;;;;;;;;;;;;;;;;;;2074516;28;1399;-85
2021/11/02 11:13:21;;;;;;;;;;;;;;;;;;2085593;28;1290;-86
2021/11/02 11:14:29;;;;;;;;;;;;;;;;;;2083504;28;1342;-84
2021/11/02 11:15:32;;;;;;;;;;;;;;;;;;2085011;28;1303;-84
2021/11/02 11:16:36;;;;;;;;;;;;;;;;;;2091597;28;1776;-86
2021/11/02 11:17:37;;;;;;;;;;;;;;;;;;2075681;28;1256;-84
2021/11/02 11:18:45;;;;;;;;;;;;;;;;;;2082839;28;1213;-84
2021/11/02 11:19:50;;;;;;;;;;;;;;;;;;2082875;28;900;-84
2021/11/02 11:20:52;;;;;;;;;;;;;;;;;;2087736;28;1295;-84
2021/11/02 11:21:57;;;;;;;;;;;;;;;;;;2090668;28;1392;-83
2021/11/02 11:23:00;;;;;;;;;;;;;;;;;;2082913;28;1239;-83
2021/11/02 11:24:05;;;;;;;;;;;;;;;;;;2082834;28;1203;-83
2021/11/02 11:25:14;;;;;;;;;;;;;;;;;;2083501;28;1387;-82
2021/11/02 11:26:18;;;;;;;;;;;;;;;;;;2075594;28;1911;-83
2021/11/02 11:27:21;;;;;;;;;;;;;;;;;;2082907;28;893;-84
2021/11/02 11:28:23;;;;;;;;;;;;;;;;;;2090456;28;1372;-81
2021/11/02 11:29:25;;;;;;;;;;;;;;;;;;2082970;28;1519;-81
2021/11/02 11:30:28;;;;;;;;;;;;;;;;;;2083047;28;1408;-83
2021/11/02 11:31:29;;;;;;;;;;;;;;;;;;2082730;28;1259;-83
2021/11/02 11:32:34;;;;;;;;;;;;;;;;;;2074509;28;1396;-82
2021/11/02 11:33:38;;;;;;;;;;;;;;;;;;2067277;28;1375;-83
2021/11/02 11:34:42;;;;;;;;;;;;;;;;;;2074823;28;1325;-82
2021/11/02 11:35:45;;;;;;;;;;;;;;;;;;2078319;28;1774;-83
2021/11/02 11:36:48;;;;;;;;;;;;;;;;;;2080191;28;1349;-84
2021/11/02 11:37:53;;;;;;;;;;;;;;;;;;2089536;28;2012;-82
2021/11/02 11:38:56;;;;;;;;;;;;;;;;;;2084578;28;832;-82
2021/11/02 11:40:00;;;;;;;;;;;;;;;;;;2084234;28;1398;-82
2021/11/02 11:41:02;;;;;;;;;;;;;;;;;;2076289;28;1441;-83
2021/11/02 11:42:06;;;;;;;;;;;;;;;;;;2076209;28;1202;-82
2021/11/02 11:43:08;;;;;;;;;;;;;;;;;;2098283;28;1352;-83
2021/11/02 11:44:12;;;;;;;;;;;;;;;;;;2100787;28;1352;-83
2021/11/02 11:45:17;;;;;;;;;;;;;;;;;;2095665;28;1305;-83
2021/11/02 11:46:19;;;;;;;;;;;;;;;;;;2092215;28;2026;-83
2021/11/02 11:47:22;;;;;;;;;;;;;;;;;;2084373;28;1364;-84
2021/11/02 11:48:24;;;;;;;;;;;;;;;;;;2091420;28;1327;-83
2021/11/02 11:49:27;;;;;;;;;;;;;;;;;;2084133;28;1206;-83
2021/11/02 11:50:30;;;;;;;;;;;;;;;;;;2084596;28;1255;-84
2021/11/02 11:51:34;;;;;;;;;;;;;;;;;;2083981;28;1238;-81
2021/11/02 11:52:43;;;;;;;;;;;;;;;;;;2076230;28;1328;-85
2021/11/02 11:53:47;;;;;;;;;;;;;;;;;;2077332;28;1215;-83
2021/11/02 11:54:49;;;;;;;;;;;;;;;;;;2076315;28;1246;-83
2021/11/02 11:56:01;;;;;;;;;;;;;;;;;;2075780;28;1236;-83
2021/11/02 11:57:02;;;;;;;;;;;;;;;;;;2084498;28;1065;-84
2021/11/02 11:58:10;;;;;;;;;;;;;;;;;;2083876;28;1383;-83
2021/11/02 11:59:17;;;;;;;;;;;;;;;;;;2083979;28;1223;-82
2021/11/02 12:00:19;;;;;;;;;;;;;;;;;;2084357;28;816;-82
2021/11/02 12:01:24;;;;;;;;;;;;;;;;;;2083885;28;1644;-81
2021/11/02 12:02:29;;;;;;;;;;;;;;;;;;2084328;28;1466;-81
2021/11/02 12:03:37;;;;;;;;;;;;;;;;;;2083890;28;1639;-81
2021/11/02 12:04:43;;;;;;;;;;;;;;;;;;2083922;28;1330;-82
2021/11/02 12:05:46;;;;;;;;;;;;;;;;;;2092164;28;1550;-82
2021/11/02 12:06:51;;;;;;;;;;;;;;;;;;2091921;28;1976;-82
2021/11/02 12:08:04;;;;;;;;;;;;;;;;;;2091826;28;1761;-83
2021/11/02 12:09:08;;;;;;;;;;;;;;;;;;2084025;28;1259;-82
2021/11/02 12:10:11;;;;;;;;;;;;;;;;;;2084371;28;1086;-83
2021/11/02 12:11:17;;;;;;;;;;;;;;;;;;2088181;28;1519;-82
2021/11/02 12:12:23;;;;;;;;;;;;;;;;;;2084758;28;1630;-81
2021/11/02 12:13:27;;;;;;;;;;;;;;;;;;2084452;28;1687;-82
2021/11/02 12:14:30;;;;;;;;;;;;;;;;;;2092692;28;1324;-81
2021/11/02 12:15:36;;;;;;;;;;;;;;;;;;2100446;28;931;-81
2021/11/02 12:16:42;;;;;;;;;;;;;;;;;;2084624;28;906;-80
2021/11/02 12:17:45;;;;;;;;;;;;;;;;;;2083666;28;1558;-81
2021/11/02 12:18:49;;;;;;;;;;;;;;;;;;2077957;28;1612;-82
2021/11/02 12:19:59;;;;;;;;;;;;;;;;;;2092119;28;972;-81
2021/11/02 12:21:01;;;;;;;;;;;;;;;;;;2092689;28;839;-82
2021/11/02 12:22:07;;;;;;;;;;;;;;;;;;2092445;28;1768;-83
2021/11/02 12:23:15;;;;;;;;;;;;;;;;;;2083466;28;1265;-80
2021/11/02 12:24:17;;;;;;;;;;;;;;;;;;2084800;28;1231;-83
2021/11/02 12:25:21;;;;;;;;;;;;;;;;;;2093458;28;1360;-85
2021/11/02 12:26:36;;;;;;;;;;;;;;;;;;2100507;28;815;-84
2021/11/02 12:27:40;;;;;;;;;;;;;;;;;;2080190;28;1373;-85
2021/11/02 12:28:46;;;;;;;;;;;;;;;;;;2092783;28;1251;-85
2021/11/02 12:29:48;;;;;;;;;;;;;;;;;;2100738;28;1235;-86
2021/11/02 12:30:50;;;;;;;;;;;;;;;;;;2089072;28;1378;-86
2021/11/02 12:31:55;;;;;;;;;;;;;;;;;;2083934;28;1387;-84
2021/11/02 12:32:59;;;;;;;;;;;;;;;;;;2083956;28;1730;-86
2021/11/02 12:34:09;;;;;;;;;;;;;;;;;;2083416;28;1314;-85
2021/11/02 12:35:25;;;;;;;;;;;;;;;;;;2088965;28;1281;-85
2021/11/02 12:36:30;;;;;;;;;;;;;;;;;;2093971;28;1221;-87
2021/11/02 12:37:32;;;;;;;;;;;;;;;;;;2092386;28;1207;-86
2021/11/02 12:38:37;;;;;;;;;;;;;;;;;;2088903;28;1288;-86
2021/11/02 12:39:38;;;;;;;;;;;;;;;;;;2084515;28;1392;-86
2021/11/02 12:40:41;;;;;;;;;;;;;;;;;;2090060;28;1686;-85
2021/11/02 12:41:49;;;;;;;;;;;;;;;;;;2075708;28;1338;-85
2021/11/02 12:42:50;;;;;;;;;;;;;;;;;;2083444;28;1361;-86
2021/11/02 12:44:04;;;;;;;;;;;;;;;;;;2093053;28;1490;-84
2021/11/02 12:45:07;;;;;;;;;;;;;;;;;;2084936;28;1190;-85
2021/11/02 12:46:10;;;;;;;;;;;;;;;;;;2076049;28;1337;-84
2021/11/02 12:47:14;;;;;;;;;;;;;;;;;;2089169;28;1911;-82
2021/11/02 12:48:16;;;;;;;;;;;;;;;;;;2092095;28;1294;-84
2021/11/02 12:49:19;;;;;;;;;;;;;;;;;;2082802;28;1310;-83
2021/11/02 12:50:27;;;;;;;;;;;;;;;;;;2085566;28;1013;-83
2021/11/02 12:51:38;;;;;;;;;;;;;;;;;;2087856;28;1204;-83